Time;durP1;ratioP1;P1;durP2;ratioP2;P2;SDS_P1;SDS_P2;PMS_P1;PMS_P2;Temp;Humidity;BMP_temperature;BMP_pressure;BME280_temperature;BME280_humidity;BME280_pressure;Samples;Min_cycle;Max_cycle;Signal;HPM_P1;HPM_P2
2022/09/09 00:03:07;;;;;;;2.07;1.30;;;;;;;;;;4976691;28;20222;-77
2022/09/09 00:06:21;;;;;;;4.50;1.87;;;;;;;;;;4976039;28;20183;-78
2022/09/09 00:09:29;;;;;;;2.70;1.70;;;;;;;;;;4965924;28;20203;-77
2022/09/09 00:12:36;;;;;;;2.97;1.60;;;;;;;;;;4977503;28;20215;-77
2022/09/09 00:15:59;;;;;;;2.90;1.40;;;;;;;;;;4978201;28;20183;-77
2022/09/09 00:19:11;;;;;;;2.90;1.63;;;;;;;;;;4965469;28;20179;-77
2022/09/09 00:22:22;;;;;;;6.77;1.63;;;;;;;;;;4965708;28;20234;-77
2022/09/09 00:25:34;;;;;;;4.87;1.80;;;;;;;;;;4976201;28;20187;-77
2022/09/09 00:28:50;;;;;;;1.87;1.53;;;;;;;;;;4977437;28;20199;-77
2022/09/09 00:31:59;;;;;;;2.57;1.50;;;;;;;;;;4976054;28;20210;-77
2022/09/09 00:35:17;;;;;;;5.63;1.80;;;;;;;;;;4976728;28;20183;-77
2022/09/09 00:38:33;;;;;;;2.47;1.63;;;;;;;;;;4977127;28;20528;-77
2022/09/09 00:41:46;;;;;;;2.77;1.33;;;;;;;;;;4975483;28;20222;-77
2022/09/09 00:44:52;;;;;;;2.03;1.50;;;;;;;;;;4976409;28;20183;-77
2022/09/09 00:47:57;;;;;;;1.90;1.30;;;;;;;;;;4975850;28;20179;-77
2022/09/09 00:51:15;;;;;;;3.67;1.63;;;;;;;;;;4975570;28;20218;-77
2022/09/09 00:54:35;;;;;;;2.30;1.73;;;;;;;;;;4976311;28;20175;-77
2022/09/09 00:57:41;;;;;;;1.97;1.47;;;;;;;;;;4964254;28;20191;-77
2022/09/09 01:00:52;;;;;;;3.17;1.60;;;;;;;;;;4976695;28;20175;-77
2022/09/09 01:04:00;;;;;;;3.03;1.40;;;;;;;;;;4964741;28;20211;-77
2022/09/09 01:07:18;;;;;;;3.83;1.70;;;;;;;;;;4975316;28;20215;-77
2022/09/09 01:10:35;;;;;;;5.03;1.90;;;;;;;;;;4975491;28;20183;-77
2022/09/09 01:13:42;;;;;;;3.10;1.47;;;;;;;;;;4975793;28;20175;-77
2022/09/09 01:16:48;;;;;;;5.33;1.60;;;;;;;;;;4963990;28;20183;-77
2022/09/09 01:20:01;;;;;;;3.47;1.40;;;;;;;;;;4975176;28;20210;-77
2022/09/09 01:23:27;;;;;;;3.83;1.20;;;;;;;;;;4974918;28;20210;-77
2022/09/09 01:26:52;;;;;;;4.40;1.53;;;;;;;;;;4975470;28;20187;-77
2022/09/09 01:30:12;;;;;;;2.00;1.50;;;;;;;;;;4975375;28;20642;-77
2022/09/09 01:33:18;;;;;;;3.10;1.50;;;;;;;;;;4974977;28;20175;-77
2022/09/09 01:36:33;;;;;;;3.43;1.50;;;;;;;;;;4974914;28;20673;-77
2022/09/09 01:39:40;;;;;;;2.33;1.50;;;;;;;;;;4953068;28;20187;-77
2022/09/09 01:42:48;;;;;;;2.00;1.40;;;;;;;;;;4964237;28;20230;-77
2022/09/09 01:45:55;;;;;;;2.50;1.37;;;;;;;;;;4974960;28;20532;-77
2022/09/09 01:49:03;;;;;;;2.83;1.77;;;;;;;;;;4963225;28;20631;-77
2022/09/09 01:52:08;;;;;;;3.17;1.83;;;;;;;;;;4974972;28;20222;-77
2022/09/09 01:55:15;;;;;;;3.83;1.70;;;;;;;;;;4974468;28;20199;-77
2022/09/09 01:58:32;;;;;;;2.73;1.80;;;;;;;;;;4974589;28;20195;-77
2022/09/09 02:01:53;;;;;;;3.27;1.70;;;;;;;;;;4974593;28;20223;-77
2022/09/09 02:05:14;;;;;;;2.00;1.30;;;;;;;;;;4963716;28;20175;-77
2022/09/09 02:08:46;;;;;;;6.60;1.70;;;;;;;;;;4974661;28;20206;-77
2022/09/09 02:11:58;;;;;;;5.23;1.73;;;;;;;;;;4975499;28;20218;-77
2022/09/09 02:15:27;;;;;;;3.03;1.50;;;;;;;;;;4975004;28;20187;-77
2022/09/09 02:18:39;;;;;;;3.30;1.50;;;;;;;;;;4976031;28;20183;-77
2022/09/09 02:21:46;;;;;;;2.00;1.40;;;;;;;;;;4975244;28;20214;-78
2022/09/09 02:24:56;;;;;;;5.73;1.80;;;;;;;;;;4975375;28;20183;-78
2022/09/09 02:28:07;;;;;;;2.47;1.50;;;;;;;;;;4975379;28;20179;-78
2022/09/09 02:31:15;;;;;;;4.87;1.40;;;;;;;;;;4975041;28;20211;-78
2022/09/09 02:34:23;;;;;;;2.80;1.60;;;;;;;;;;4975347;28;20175;-77
2022/09/09 02:37:35;;;;;;;2.10;1.50;;;;;;;;;;4975320;28;20187;-77
2022/09/09 02:40:38;;;;;;;2.40;1.33;;;;;;;;;;4974835;28;20187;-77
2022/09/09 02:43:43;;;;;;;1.70;1.53;;;;;;;;;;4963772;28;20206;-78
2022/09/09 02:47:14;;;;;;;4.70;1.83;;;;;;;;;;4973353;28;20179;-77
2022/09/09 02:50:34;;;;;;;1.93;1.33;;;;;;;;;;4973867;28;20182;-77
2022/09/09 02:53:49;;;;;;;5.57;1.50;;;;;;;;;;4974192;28;20540;-77
2022/09/09 02:56:54;;;;;;;5.73;1.70;;;;;;;;;;4973960;28;20187;-77
2022/09/09 03:00:03;;;;;;;4.00;1.40;;;;;;;;;;4976982;28;20175;-77
2022/09/09 03:03:10;;;;;;;3.50;1.40;;;;;;;;;;4966730;28;20567;-78
2022/09/09 03:06:15;;;;;;;3.40;1.50;;;;;;;;;;4977798;28;20191;-78
2022/09/09 03:09:21;;;;;;;2.30;1.27;;;;;;;;;;4978022;28;20191;-77
2022/09/09 03:12:27;;;;;;;2.33;1.40;;;;;;;;;;4966982;28;20559;-78
2022/09/09 03:15:32;;;;;;;2.27;1.40;;;;;;;;;;4979741;28;20198;-78
2022/09/09 03:18:37;;;;;;;4.60;1.60;;;;;;;;;;4979887;28;20199;-79
2022/09/09 03:21:41;;;;;;;3.57;1.57;;;;;;;;;;4978233;28;20222;-78
2022/09/09 03:24:46;;;;;;;4.93;1.90;;;;;;;;;;4979527;28;20211;-78
2022/09/09 03:27:54;;;;;;;5.30;1.60;;;;;;;;;;4982637;28;20183;-78
2022/09/09 03:31:00;;;;;;;3.93;1.60;;;;;;;;;;4982617;28;20215;-78
2022/09/09 03:34:07;;;;;;;3.37;2.00;;;;;;;;;;4982769;28;20171;-78
2022/09/09 03:37:13;;;;;;;2.03;1.30;;;;;;;;;;4982455;28;20650;-77
2022/09/09 03:40:19;;;;;;;3.17;1.60;;;;;;;;;;4971729;28;20179;-79
2022/09/09 03:43:25;;;;;;;2.20;1.50;;;;;;;;;;4982217;28;20674;-78
2022/09/09 03:46:31;;;;;;;3.43;1.73;;;;;;;;;;4981517;28;20179;-78
2022/09/09 03:49:37;;;;;;;4.47;1.57;;;;;;;;;;4981462;28;20183;-77
2022/09/09 03:52:42;;;;;;;3.90;1.73;;;;;;;;;;4970137;28;20567;-78
2022/09/09 03:55:55;;;;;;;3.00;1.57;;;;;;;;;;4980220;28;20654;-78
2022/09/09 03:59:00;;;;;;;3.00;1.73;;;;;;;;;;4969429;28;20183;-78
2022/09/09 04:02:05;;;;;;;3.43;1.83;;;;;;;;;;4969227;28;20214;-77
2022/09/09 04:05:10;;;;;;;3.90;2.03;;;;;;;;;;4979504;28;20183;-78
2022/09/09 04:08:16;;;;;;;2.63;1.70;;;;;;;;;;4978323;28;20206;-78
2022/09/09 04:11:21;;;;;;;2.97;1.70;;;;;;;;;;4965366;28;20214;-78
2022/09/09 04:14:28;;;;;;;7.87;1.70;;;;;;;;;;4977792;28;20202;-78
2022/09/09 04:17:33;;;;;;;3.60;1.80;;;;;;;;;;4977319;28;20199;-78
2022/09/09 04:20:37;;;;;;;5.93;1.90;;;;;;;;;;4977604;28;20198;-78
2022/09/09 04:23:42;;;;;;;4.73;2.03;;;;;;;;;;4977232;28;20540;-78
2022/09/09 04:26:47;;;;;;;4.53;1.80;;;;;;;;;;4977334;28;20625;-78
2022/09/09 04:29:51;;;;;;;3.33;1.77;;;;;;;;;;4976938;28;20198;-78
2022/09/09 04:32:56;;;;;;;4.47;1.73;;;;;;;;;;4975808;28;20634;-76
2022/09/09 04:36:01;;;;;;;6.30;2.00;;;;;;;;;;4975684;28;20562;-76
2022/09/09 04:39:05;;;;;;;4.43;1.90;;;;;;;;;;4976747;28;20523;-76
2022/09/09 04:42:10;;;;;;;4.17;2.10;;;;;;;;;;4976065;28;20227;-77
2022/09/09 04:45:14;;;;;;;5.53;2.10;;;;;;;;;;4975815;28;20182;-76
2022/09/09 04:48:20;;;;;;;3.10;2.00;;;;;;;;;;4975593;28;20179;-76
2022/09/09 04:51:24;;;;;;;4.60;2.37;;;;;;;;;;4976210;28;20210;-76
2022/09/09 04:54:29;;;;;;;4.50;2.30;;;;;;;;;;4975248;28;20179;-76
2022/09/09 04:57:34;;;;;;;3.47;2.10;;;;;;;;;;4975293;28;20191;-76
2022/09/09 05:00:38;;;;;;;4.83;2.20;;;;;;;;;;4975171;28;20187;-75
2022/09/09 05:03:46;;;;;;;3.03;2.00;;;;;;;;;;4975028;28;20211;-77
2022/09/09 05:06:51;;;;;;;3.97;2.10;;;;;;;;;;4975015;28;20206;-75
2022/09/09 05:09:56;;;;;;;5.43;2.27;;;;;;;;;;4963643;28;20634;-76
2022/09/09 05:13:00;;;;;;;9.67;2.40;;;;;;;;;;4975780;28;20182;-76
2022/09/09 05:16:07;;;;;;;7.30;2.83;;;;;;;;;;4974800;28;20198;-76
2022/09/09 05:19:11;;;;;;;6.07;2.93;;;;;;;;;;4974588;28;20183;-76
2022/09/09 05:22:23;;;;;;;4.70;2.17;;;;;;;;;;4963209;28;20226;-76
2022/09/09 05:25:28;;;;;;;3.37;2.33;;;;;;;;;;4974477;28;20183;-76
2022/09/09 05:28:36;;;;;;;7.10;2.40;;;;;;;;;;4974855;28;20179;-76
2022/09/09 05:31:40;;;;;;;3.37;1.90;;;;;;;;;;4975016;28;20218;-76
2022/09/09 05:34:48;;;;;;;17.87;4.03;;;;;;;;;;4974218;28;20183;-76
2022/09/09 05:37:59;;;;;;;14.80;4.43;;;;;;;;;;4963181;28;20182;-76
2022/09/09 05:41:03;;;;;;;9.30;3.73;;;;;;;;;;4963416;28;20218;-76
2022/09/09 05:44:08;;;;;;;10.17;4.00;;;;;;;;;;4963416;28;20211;-76
2022/09/09 05:47:17;;;;;;;7.43;3.43;;;;;;;;;;4974200;28;20183;-77
2022/09/09 05:50:21;;;;;;;6.60;2.73;;;;;;;;;;4973827;28;20178;-76
2022/09/09 05:53:33;;;;;;;6.07;2.57;;;;;;;;;;4974447;28;20179;-77
2022/09/09 05:56:38;;;;;;;4.33;2.77;;;;;;;;;;4974272;28;20187;-76
2022/09/09 05:59:44;;;;;;;2.63;2.30;;;;;;;;;;4974149;28;20191;-76
2022/09/09 06:02:52;;;;;;;4.67;2.70;;;;;;;;;;4962493;28;20217;-76
2022/09/09 06:06:01;;;;;;;11.37;4.53;;;;;;;;;;4963128;28;20179;-76
2022/09/09 06:09:09;;;;;;;10.30;5.43;;;;;;;;;;4974193;28;20182;-77
2022/09/09 06:12:14;;;;;;;12.17;5.33;;;;;;;;;;4973624;28;20223;-76
2022/09/09 06:15:18;;;;;;;11.97;5.00;;;;;;;;;;4973619;28;20650;-76
2022/09/09 06:18:22;;;;;;;11.60;4.90;;;;;;;;;;4973814;28;20187;-76
2022/09/09 06:21:36;;;;;;;11.57;5.13;;;;;;;;;;4974578;28;20301;-77
2022/09/09 06:24:41;;;;;;;8.03;4.17;;;;;;;;;;4973716;28;20666;-77
2022/09/09 06:27:49;;;;;;;7.77;4.20;;;;;;;;;;4973897;28;20202;-77
2022/09/09 06:31:05;;;;;;;6.57;3.93;;;;;;;;;;4973857;28;20214;-76
2022/09/09 06:34:09;;;;;;;4.60;3.30;;;;;;;;;;4975809;28;20195;-77
2022/09/09 06:37:18;;;;;;;8.30;4.20;;;;;;;;;;4956182;28;20182;-77
2022/09/09 06:40:26;;;;;;;6.97;3.50;;;;;;;;;;4977442;28;20547;-77
2022/09/09 06:43:30;;;;;;;3.03;2.53;;;;;;;;;;4977406;28;20182;-76
2022/09/09 06:46:35;;;;;;;8.13;2.80;;;;;;;;;;4977665;28;20175;-77
2022/09/09 06:49:40;;;;;;;3.60;2.40;;;;;;;;;;4977363;28;20523;-77
2022/09/09 06:52:50;;;;;;;4.73;2.47;;;;;;;;;;4977524;28;20210;-76
2022/09/09 06:55:54;;;;;;;4.70;2.20;;;;;;;;;;4977391;28;20174;-78
2022/09/09 06:59:03;;;;;;;4.47;2.40;;;;;;;;;;4977239;28;20183;-76
2022/09/09 07:02:08;;;;;;;8.73;2.30;;;;;;;;;;4977203;28;20210;-76
2022/09/09 07:05:12;;;;;;;5.40;2.20;;;;;;;;;;4977941;28;20207;-76
2022/09/09 07:08:18;;;;;;;3.57;2.23;;;;;;;;;;4977024;28;20207;-76
2022/09/09 07:11:29;;;;;;;5.70;2.27;;;;;;;;;;4980388;28;20674;-77
2022/09/09 07:14:35;;;;;;;4.03;2.00;;;;;;;;;;4979499;28;20179;-78
2022/09/09 07:17:42;;;;;;;3.63;1.70;;;;;;;;;;4980262;28;20187;-78
2022/09/09 07:20:54;;;;;;;2.90;2.03;;;;;;;;;;4980438;28;20179;-79
2022/09/09 07:23:59;;;;;;;3.17;2.07;;;;;;;;;;4980486;28;20210;-78
2022/09/09 07:27:05;;;;;;;3.80;2.20;;;;;;;;;;4980244;28;20183;-79
2022/09/09 07:30:10;;;;;;;6.23;2.47;;;;;;;;;;4979867;28;20182;-78
2022/09/09 07:33:14;;;;;;;5.87;2.27;;;;;;;;;;4968503;28;20191;-78
2022/09/09 07:36:25;;;;;;;5.80;2.57;;;;;;;;;;4978813;28;20179;-78
2022/09/09 07:39:30;;;;;;;3.50;2.17;;;;;;;;;;4979947;28;20183;-79
2022/09/09 07:42:34;;;;;;;3.70;2.13;;;;;;;;;;4980298;28;20709;-79
2022/09/09 07:45:40;;;;;;;5.00;2.30;;;;;;;;;;4980714;28;20203;-79
2022/09/09 07:48:46;;;;;;;3.70;2.07;;;;;;;;;;4980120;28;20187;-79
2022/09/09 07:51:50;;;;;;;6.37;2.20;;;;;;;;;;4980310;28;20559;-79
2022/09/09 07:54:56;;;;;;;3.90;2.63;;;;;;;;;;4968749;28;20167;-80
2022/09/09 07:58:01;;;;;;;4.20;2.43;;;;;;;;;;4968669;28;20187;-79
2022/09/09 08:01:11;;;;;;;3.90;2.60;;;;;;;;;;4968598;28;20219;-78
2022/09/09 08:04:18;;;;;;;15.10;3.20;;;;;;;;;;4965166;28;20214;-78
2022/09/09 08:07:24;;;;;;;8.77;2.40;;;;;;;;;;4976191;28;20548;-77
2022/09/09 08:10:31;;;;;;;5.10;2.50;;;;;;;;;;4977733;28;20530;-77
2022/09/09 08:13:38;;;;;;;11.97;3.03;;;;;;;;;;4979172;28;20190;-79
2022/09/09 08:16:46;;;;;;;4.13;2.60;;;;;;;;;;4979228;28;20175;-78
2022/09/09 08:19:54;;;;;;;6.87;2.97;;;;;;;;;;4979571;28;20531;-78
2022/09/09 08:23:02;;;;;;;6.90;3.33;;;;;;;;;;4979106;28;20179;-79
2022/09/09 08:26:11;;;;;;;5.03;3.30;;;;;;;;;;4979252;28;20555;-79
2022/09/09 08:29:16;;;;;;;6.03;2.63;;;;;;;;;;4979497;28;20203;-79
2022/09/09 08:32:20;;;;;;;3.30;2.43;;;;;;;;;;4967959;28;20222;-79
2022/09/09 08:35:25;;;;;;;4.03;2.40;;;;;;;;;;4967991;28;20638;-79
2022/09/09 08:38:29;;;;;;;6.37;2.33;;;;;;;;;;4979042;28;20179;-79
2022/09/09 08:42:02;;;;;;;7.00;2.00;;;;;;;;;;4979328;28;20227;-80
2022/09/09 08:45:34;;;;;;;3.37;1.87;;;;;;;;;;4979295;28;20215;-79
2022/09/09 08:48:43;;;;;;;6.80;2.23;;;;;;;;;;4967893;28;20182;-79
2022/09/09 08:51:49;;;;;;;3.20;2.07;;;;;;;;;;4957556;28;20210;-79
2022/09/09 08:55:49;;;;;;;3.47;2.23;;;;;;;;;;4979145;28;20179;-80
2022/09/09 08:59:00;;;;;;;4.07;1.80;;;;;;;;;;4953011;28;20194;-79
2022/09/09 09:02:36;;;;;;;3.10;1.80;;;;;;;;;;4978444;28;20226;-79
2022/09/09 09:05:48;;;;;;;5.13;2.20;;;;;;;;;;4956644;28;20654;-80
2022/09/09 09:09:02;;;;;;;3.50;2.10;;;;;;;;;;4978161;28;20631;-79
2022/09/09 09:12:20;;;;;;;2.53;1.73;;;;;;;;;;4967476;28;20218;-80
2022/09/09 09:15:30;;;;;;;3.33;2.10;;;;;;;;;;4978642;28;20516;-80
2022/09/09 09:18:34;;;;;;;5.03;2.20;;;;;;;;;;4956087;28;20365;-80
2022/09/09 09:21:43;;;;;;;3.97;2.37;;;;;;;;;;4969180;28;20211;-77
2022/09/09 09:24:55;;;;;;;4.50;1.73;;;;;;;;;;4967196;28;20548;-80
2022/09/09 09:28:39;;;;;;;2.90;1.67;;;;;;;;;;4980857;28;20179;-80
2022/09/09 09:31:56;;;;;;;3.93;1.40;;;;;;;;;;4917205;28;20221;-80
2022/09/09 09:35:09;;;;;;;3.00;1.30;;;;;;;;;;4970124;28;20183;-80
2022/09/09 09:38:19;;;;;;;2.70;1.20;;;;;;;;;;4984767;28;20195;-80
2022/09/09 09:41:37;;;;;;;2.07;1.10;;;;;;;;;;4983404;28;20222;-77
2022/09/09 09:44:43;;;;;;;3.10;1.33;;;;;;;;;;4979835;28;20210;-78
2022/09/09 09:48:05;;;;;;;3.47;1.40;;;;;;;;;;4970277;28;20194;-77
2022/09/09 09:51:16;;;;;;;3.00;1.60;;;;;;;;;;4980530;28;20222;-77
2022/09/09 09:54:28;;;;;;;3.33;1.83;;;;;;;;;;4980303;28;20191;-80
2022/09/09 09:57:36;;;;;;;3.37;1.20;;;;;;;;;;4971044;28;20186;-80
2022/09/09 10:00:51;;;;;;;2.70;1.40;;;;;;;;;;4982412;28;20626;-80
2022/09/09 10:04:01;;;;;;;2.90;1.20;;;;;;;;;;4980631;28;20195;-80
2022/09/09 10:07:18;;;;;;;1.77;1.20;;;;;;;;;;4980094;28;20206;-80
2022/09/09 10:10:31;;;;;;;3.90;1.20;;;;;;;;;;4968814;28;20207;-80
2022/09/09 10:13:36;;;;;;;3.70;1.20;;;;;;;;;;4968281;28;20171;-80
2022/09/09 10:16:52;;;;;;;3.03;1.50;;;;;;;;;;4981126;28;20179;-80
2022/09/09 10:20:12;;;;;;;2.27;1.33;;;;;;;;;;4969015;28;20182;-80
2022/09/09 10:23:38;;;;;;;3.60;1.40;;;;;;;;;;4979532;28;20187;-80
2022/09/09 10:27:00;;;;;;;2.00;1.20;;;;;;;;;;4977540;28;20211;-77
2022/09/09 10:30:26;;;;;;;2.33;1.10;;;;;;;;;;4965270;28;20187;-77
2022/09/09 10:33:56;;;;;;;2.47;1.10;;;;;;;;;;4967757;28;20183;-77
2022/09/09 10:37:02;;;;;;;3.63;1.47;;;;;;;;;;4977449;28;20182;-80
2022/09/09 10:40:26;;;;;;;1.83;1.00;;;;;;;;;;4978520;28;20524;-80
2022/09/09 10:43:53;;;;;;;2.07;0.93;;;;;;;;;;4967262;28;20183;-79
2022/09/09 10:47:06;;;;;;;2.77;1.20;;;;;;;;;;4977754;28;20675;-79
2022/09/09 10:50:29;;;;;;;3.40;1.10;;;;;;;;;;4974795;28;20180;-77
2022/09/09 10:54:03;;;;;;;2.60;0.83;;;;;;;;;;4975920;28;20184;-77
2022/09/09 10:57:16;;;;;;;2.00;0.83;;;;;;;;;;4964391;28;20171;-76
2022/09/09 11:00:45;;;;;;;2.00;0.80;;;;;;;;;;4974647;28;20538;-77
2022/09/09 11:03:58;;;;;;;3.40;0.90;;;;;;;;;;4974464;28;20199;-79
2022/09/09 11:07:08;;;;;;;2.17;1.00;;;;;;;;;;4976965;28;20231;-77
2022/09/09 11:10:24;;;;;;;3.90;1.10;;;;;;;;;;4975416;28;20206;-76
2022/09/09 11:14:01;;;;;;;2.17;1.00;;;;;;;;;;4974471;28;20177;-76
2022/09/09 11:17:12;;;;;;;3.40;1.10;;;;;;;;;;4963402;28;20181;-76
2022/09/09 11:20:16;;;;;;;2.03;0.93;;;;;;;;;;4975600;28;20197;-76
2022/09/09 11:23:41;;;;;;;2.93;1.10;;;;;;;;;;4978306;28;20186;-76
2022/09/09 11:26:54;;;;;;;1.87;0.90;;;;;;;;;;4977143;28;20213;-76
2022/09/09 11:30:20;;;;;;;2.50;1.20;;;;;;;;;;4978163;28;20181;-77
2022/09/09 11:33:34;;;;;;;2.10;0.93;;;;;;;;;;4980255;28;20189;-79
2022/09/09 11:36:53;;;;;;;1.00;0.83;;;;;;;;;;4980557;28;20623;-78
2022/09/09 11:40:23;;;;;;;2.33;1.10;;;;;;;;;;4978759;28;20180;-77
2022/09/09 11:43:41;;;;;;;2.53;1.20;;;;;;;;;;4965852;28;20526;-76
2022/09/09 11:46:50;;;;;;;3.73;1.07;;;;;;;;;;4966247;28;20556;-80
2022/09/09 11:50:07;;;;;;;1.27;1.00;;;;;;;;;;4977185;28;20186;-76
2022/09/09 11:53:22;;;;;;;1.90;1.03;;;;;;;;;;4978893;28;20182;-80
2022/09/09 11:56:32;;;;;;;2.83;1.20;;;;;;;;;;4977218;28;20188;-76
2022/09/09 11:59:37;;;;;;;2.97;1.13;;;;;;;;;;4977518;28;20185;-77
2022/09/09 12:02:49;;;;;;;5.07;1.10;;;;;;;;;;4976701;28;20222;-76
2022/09/09 12:05:55;;;;;;;3.70;1.10;;;;;;;;;;4976231;28;20206;-75
2022/09/09 12:09:23;;;;;;;1.73;0.87;;;;;;;;;;4976899;28;20190;-76
2022/09/09 12:12:36;;;;;;;3.30;0.90;;;;;;;;;;4976705;28;20715;-76
2022/09/09 12:15:49;;;;;;;2.63;1.10;;;;;;;;;;4977014;28;20183;-77
2022/09/09 12:19:03;;;;;;;2.83;1.00;;;;;;;;;;4975681;28;20192;-76
2022/09/09 12:22:35;;;;;;;2.33;1.00;;;;;;;;;;4975818;28;20221;-76
2022/09/09 12:25:51;;;;;;;2.47;0.90;;;;;;;;;;4976449;28;20204;-75
2022/09/09 12:29:09;;;;;;;1.60;0.90;;;;;;;;;;4976334;28;20634;-76
2022/09/09 12:32:22;;;;;;;2.77;1.00;;;;;;;;;;4974988;28;20225;-76
2022/09/09 12:35:28;;;;;;;5.37;1.10;;;;;;;;;;4976045;28;20188;-76
2022/09/09 12:38:41;;;;;;;4.10;1.03;;;;;;;;;;4978625;28;20195;-76
2022/09/09 12:41:59;;;;;;;1.80;0.90;;;;;;;;;;4976936;28;20221;-79
2022/09/09 12:45:19;;;;;;;3.07;0.90;;;;;;;;;;4979561;28;20190;-79
2022/09/09 12:48:37;;;;;;;2.43;0.80;;;;;;;;;;4979482;28;20192;-79
2022/09/09 12:51:43;;;;;;;2.23;0.90;;;;;;;;;;4976525;28;20224;-76
2022/09/09 12:54:47;;;;;;;3.13;1.00;;;;;;;;;;4976960;28;20186;-79
2022/09/09 12:57:52;;;;;;;2.47;0.70;;;;;;;;;;4976961;28;20174;-76
2022/09/09 13:00:57;;;;;;;1.83;0.77;;;;;;;;;;4974878;28;20221;-76
2022/09/09 13:04:01;;;;;;;3.20;0.83;;;;;;;;;;4976050;28;20188;-76
2022/09/09 13:07:09;;;;;;;2.63;0.90;;;;;;;;;;4975101;28;20226;-76
2022/09/09 13:10:19;;;;;;;2.97;0.87;;;;;;;;;;4975017;28;20187;-76
2022/09/09 13:13:49;;;;;;;3.20;1.00;;;;;;;;;;4975320;28;20187;-76
2022/09/09 13:16:59;;;;;;;2.17;0.70;;;;;;;;;;4963965;28;20177;-77
2022/09/09 13:20:04;;;;;;;3.73;1.00;;;;;;;;;;4975135;28;20184;-77
2022/09/09 13:23:11;;;;;;;2.60;0.87;;;;;;;;;;4976029;28;20176;-77
2022/09/09 13:26:25;;;;;;;4.40;1.10;;;;;;;;;;4975306;28;20209;-77
2022/09/09 13:29:31;;;;;;;4.33;1.00;;;;;;;;;;4974821;28;20524;-76
2022/09/09 13:32:35;;;;;;;2.27;0.80;;;;;;;;;;4974820;28;20216;-78
2022/09/09 13:36:10;;;;;;;4.20;1.00;;;;;;;;;;4964136;28;20180;-77
2022/09/09 13:39:20;;;;;;;3.17;0.83;;;;;;;;;;4963655;28;20184;-77
2022/09/09 13:42:27;;;;;;;5.60;0.80;;;;;;;;;;4964048;28;20219;-77
2022/09/09 13:45:31;;;;;;;3.83;0.90;;;;;;;;;;4964769;28;20554;-78
2022/09/09 13:48:35;;;;;;;2.60;1.00;;;;;;;;;;4976028;28;20188;-77
2022/09/09 13:51:50;;;;;;;2.97;1.00;;;;;;;;;;4975331;28;20225;-77
2022/09/09 13:54:55;;;;;;;5.17;1.47;;;;;;;;;;4974859;28;20205;-78
2022/09/09 13:58:01;;;;;;;3.08;0.70;;;;;;;;;;4975473;28;20189;-78
2022/09/09 14:01:05;;;;;;;1.80;0.70;;;;;;;;;;4976482;28;20555;-78
2022/09/09 14:04:10;;;;;;;6.80;0.80;;;;;;;;;;4977162;28;20540;-78
2022/09/09 14:07:16;;;;;;;4.50;0.90;;;;;;;;;;4975724;28;20229;-78
2022/09/09 14:10:22;;;;;;;23.63;2.00;;;;;;;;;;4964084;28;20527;-77
2022/09/09 14:13:26;;;;;;;1.73;0.80;;;;;;;;;;4964835;28;20641;-78
2022/09/09 14:16:30;;;;;;;3.90;0.80;;;;;;;;;;4977044;28;20174;-79
2022/09/09 14:19:35;;;;;;;3.57;0.90;;;;;;;;;;4976953;28;20544;-77
2022/09/09 14:22:40;;;;;;;4.17;1.00;;;;;;;;;;4976117;28;20223;-78
2022/09/09 14:25:44;;;;;;;2.00;0.60;;;;;;;;;;4975350;28;20197;-77
2022/09/09 14:28:49;;;;;;;5.83;0.80;;;;;;;;;;4977490;28;20552;-78
2022/09/09 14:31:53;;;;;;;4.27;0.97;;;;;;;;;;4964242;28;20222;-78
2022/09/09 14:34:57;;;;;;;1.10;0.53;;;;;;;;;;4964396;28;20185;-78
2022/09/09 14:38:03;;;;;;;3.87;1.10;;;;;;;;;;4975193;28;20175;-78
2022/09/09 14:41:12;;;;;;;4.50;0.70;;;;;;;;;;4976003;28;20567;-79
2022/09/09 14:44:17;;;;;;;5.47;0.90;;;;;;;;;;4964899;28;20182;-78
2022/09/09 14:47:21;;;;;;;2.50;0.90;;;;;;;;;;4975995;28;20238;-78
2022/09/09 14:50:26;;;;;;;4.20;0.80;;;;;;;;;;4975663;28;20185;-78
2022/09/09 14:53:30;;;;;;;1.50;0.70;;;;;;;;;;4975342;28;20179;-77
2022/09/09 14:56:34;;;;;;;2.40;0.77;;;;;;;;;;4986686;28;20183;-77
2022/09/09 14:59:38;;;;;;;1.83;0.90;;;;;;;;;;4978218;28;20187;-77
2022/09/09 15:02:42;;;;;;;2.67;1.00;;;;;;;;;;4988528;28;20222;-77
2022/09/09 15:05:46;;;;;;;3.50;1.00;;;;;;;;;;4979351;28;20179;-77
2022/09/09 15:08:52;;;;;;;3.03;1.00;;;;;;;;;;4979112;28;20183;-78
2022/09/09 15:11:56;;;;;;;3.03;0.80;;;;;;;;;;4990154;28;20215;-78
2022/09/09 15:15:03;;;;;;;4.33;0.90;;;;;;;;;;4967402;28;20179;-77
2022/09/09 15:18:07;;;;;;;2.57;0.90;;;;;;;;;;4977728;28;20203;-78
2022/09/09 15:21:18;;;;;;;5.50;0.90;;;;;;;;;;4977899;28;20222;-78
2022/09/09 15:24:22;;;;;;;3.30;0.90;;;;;;;;;;4977798;28;20202;-77
2022/09/09 15:27:26;;;;;;;3.23;0.93;;;;;;;;;;4968948;28;20206;-78
2022/09/09 15:30:31;;;;;;;4.43;0.87;;;;;;;;;;4969224;28;20179;-78
2022/09/09 15:33:38;;;;;;;3.40;0.97;;;;;;;;;;4980611;28;20183;-78
2022/09/09 15:36:45;;;;;;;0.80;0.57;;;;;;;;;;4980907;28;20199;-79
2022/09/09 15:39:50;;;;;;;7.07;1.10;;;;;;;;;;4979662;28;20187;-77
2022/09/09 15:42:54;;;;;;;2.47;0.67;;;;;;;;;;4993952;28;20214;-81
2022/09/09 15:46:12;;;;;;;1.70;0.60;;;;;;;;;;4982302;28;20183;-79
2022/09/09 15:49:25;;;;;;;2.30;0.50;;;;;;;;;;4972381;28;20187;-80
2022/09/09 15:52:29;;;;;;;3.70;0.70;;;;;;;;;;4960992;28;20219;-81
2022/09/09 15:55:34;;;;;;;4.17;0.50;;;;;;;;;;4970479;28;20206;-80
2022/09/09 15:58:38;;;;;;;3.03;0.50;;;;;;;;;;4993493;28;20198;-80
2022/09/09 16:01:43;;;;;;;0.60;0.60;;;;;;;;;;4959896;28;20219;-81
2022/09/09 16:04:47;;;;;;;2.23;0.77;;;;;;;;;;4970495;28;20535;-81
2022/09/09 16:07:52;;;;;;;2.13;0.60;;;;;;;;;;4989649;28;20226;-78
2022/09/09 16:10:56;;;;;;;1.10;0.40;;;;;;;;;;4979482;28;20223;-80
2022/09/09 16:14:01;;;;;;;1.57;0.60;;;;;;;;;;4981967;28;20198;-80
2022/09/09 16:17:06;;;;;;;0.80;0.60;;;;;;;;;;4992818;28;20630;-79
2022/09/09 16:20:11;;;;;;;2.23;0.60;;;;;;;;;;4958938;28;20202;-79
2022/09/09 16:23:16;;;;;;;0.77;0.50;;;;;;;;;;4969457;28;20206;-79
2022/09/09 16:26:20;;;;;;;1.30;0.60;;;;;;;;;;4980299;28;20198;-79
2022/09/09 16:29:27;;;;;;;3.87;0.63;;;;;;;;;;4980898;28;20203;-79
2022/09/09 16:32:31;;;;;;;1.53;0.50;;;;;;;;;;4969543;28;20214;-80
2022/09/09 16:35:38;;;;;;;0.90;0.60;;;;;;;;;;4969381;28;20182;-81
2022/09/09 16:38:43;;;;;;;5.03;1.07;;;;;;;;;;4969158;28;20179;-80
2022/09/09 16:41:48;;;;;;;1.53;0.70;;;;;;;;;;4957948;28;20222;-80
2022/09/09 16:44:52;;;;;;;1.60;0.80;;;;;;;;;;4968483;28;20183;-81
2022/09/09 16:47:56;;;;;;;0.83;0.60;;;;;;;;;;4968791;28;20214;-81
2022/09/09 16:51:06;;;;;;;2.47;0.63;;;;;;;;;;4980532;28;20214;-79
2022/09/09 16:54:12;;;;;;;2.73;0.90;;;;;;;;;;4967569;28;20191;-80
2022/09/09 16:57:17;;;;;;;3.23;1.00;;;;;;;;;;4969113;28;20504;-81
2022/09/09 17:00:23;;;;;;;1.80;0.63;;;;;;;;;;4968785;28;20182;-80
2022/09/09 17:03:27;;;;;;;1.57;0.87;;;;;;;;;;4968901;28;20507;-81
2022/09/09 17:06:38;;;;;;;0.80;0.70;;;;;;;;;;4990271;28;20685;-81
2022/09/09 17:09:42;;;;;;;1.33;0.67;;;;;;;;;;4968811;28;20187;-81
2022/09/09 17:12:47;;;;;;;4.00;1.00;;;;;;;;;;4978726;28;20218;-79
2022/09/09 17:15:51;;;;;;;2.17;1.10;;;;;;;;;;4989674;28;20206;-80
2022/09/09 17:18:56;;;;;;;4.73;1.00;;;;;;;;;;4956115;28;20194;-80
2022/09/09 17:22:01;;;;;;;2.53;0.70;;;;;;;;;;4967569;28;20219;-80
2022/09/09 17:25:06;;;;;;;2.50;1.00;;;;;;;;;;4989835;28;20182;-80
2022/09/09 17:28:10;;;;;;;1.37;0.83;;;;;;;;;;4967544;28;20230;-80
2022/09/09 17:31:16;;;;;;;2.00;1.03;;;;;;;;;;4989535;28;20566;-80
2022/09/09 17:34:20;;;;;;;4.53;1.10;;;;;;;;;;4967847;28;20179;-80
2022/09/09 17:37:25;;;;;;;3.03;1.00;;;;;;;;;;4967902;28;20174;-80
2022/09/09 17:40:29;;;;;;;4.03;1.10;;;;;;;;;;4966673;28;20550;-84
2022/09/09 17:43:33;;;;;;;2.97;0.90;;;;;;;;;;4955335;28;20194;-80
2022/09/09 17:46:40;;;;;;;6.67;1.00;;;;;;;;;;4966341;28;20194;-80
2022/09/09 17:49:44;;;;;;;2.90;1.30;;;;;;;;;;4956524;28;20179;-81
2022/09/09 17:52:48;;;;;;;6.13;1.17;;;;;;;;;;4967609;28;20226;-80
2022/09/09 17:55:52;;;;;;;5.20;1.20;;;;;;;;;;4967252;28;20637;-80
2022/09/09 17:58:58;;;;;;;2.83;1.33;;;;;;;;;;4966954;28;20174;-81
2022/09/09 18:02:04;;;;;;;3.23;1.10;;;;;;;;;;4956319;28;20210;-81
2022/09/09 18:05:08;;;;;;;4.20;1.30;;;;;;;;;;4989326;28;20186;-82
2022/09/09 18:08:13;;;;;;;3.20;1.33;;;;;;;;;;4968692;28;20230;-82
2022/09/09 18:11:19;;;;;;;3.43;1.43;;;;;;;;;;4980378;28;20222;-83
2022/09/09 18:14:30;;;;;;;6.90;1.63;;;;;;;;;;4970477;28;20198;-82
2022/09/09 18:17:34;;;;;;;4.13;1.60;;;;;;;;;;4972201;28;20191;-82
2022/09/09 18:20:39;;;;;;;4.53;1.73;;;;;;;;;;4970157;28;20186;-81
2022/09/09 18:23:50;;;;;;;4.97;1.50;;;;;;;;;;4969305;28;20182;-81
2022/09/09 18:26:55;;;;;;;3.23;1.20;;;;;;;;;;4967650;28;20290;-81
2022/09/09 18:29:59;;;;;;;2.47;1.10;;;;;;;;;;4967580;28;20186;-83
2022/09/09 18:33:04;;;;;;;2.40;1.37;;;;;;;;;;4969435;28;20186;-82
2022/09/09 18:36:11;;;;;;;5.07;1.10;;;;;;;;;;4980699;28;20187;-82
2022/09/09 18:39:17;;;;;;;5.80;1.33;;;;;;;;;;4970765;28;20178;-83
2022/09/09 18:42:21;;;;;;;3.30;1.00;;;;;;;;;;4960545;28;20214;-82
2022/09/09 18:45:25;;;;;;;6.53;1.10;;;;;;;;;;4982053;28;20191;-81
2022/09/09 18:48:32;;;;;;;3.57;1.47;;;;;;;;;;4993955;28;20579;-81
2022/09/09 18:51:39;;;;;;;2.77;1.20;;;;;;;;;;4982923;28;20214;-82
2022/09/09 18:54:44;;;;;;;3.37;1.40;;;;;;;;;;4960363;28;20182;-82
2022/09/09 18:57:49;;;;;;;5.77;1.63;;;;;;;;;;4970969;28;20183;-83